Time;durP1;ratioP1;P1;durP2;ratioP2;P2;SDS_P1;SDS_P2;PMS_P1;PMS_P2;Temp;Humidity;BMP_temperature;BMP_pressure;BME280_temperature;BME280_humidity;BME280_pressure;Samples;Min_cycle;Max_cycle;Signal;HPM_P1;HPM_P2
2024/02/19 00:00:12;;;;;;;227.45;60.88;;;;;;;;;;4995506;28;20423;-45
2024/02/19 00:02:38;;;;;;;226.48;59.67;;;;;;;;;;4997378;28;20169;-45
2024/02/19 00:05:05;;;;;;;226.48;62.15;;;;;;;;;;4995256;28;20185;-45
2024/02/19 00:07:31;;;;;;;226.93;60.72;;;;;;;;;;4994995;28;20175;-45
2024/02/19 00:09:57;;;;;;;226.05;59.25;;;;;;;;;;4995774;28;20176;-45
2024/02/19 00:12:23;;;;;;;225.50;59.50;;;;;;;;;;4996016;28;20209;-45
2024/02/19 00:14:49;;;;;;;226.07;58.80;;;;;;;;;;4997009;28;20584;-45
2024/02/19 00:17:15;;;;;;;226.13;60.20;;;;;;;;;;4994668;28;20416;-45
2024/02/19 00:19:41;;;;;;;222.37;57.10;;;;;;;;;;4995618;28;20430;-45
2024/02/19 00:22:08;;;;;;;224.93;58.20;;;;;;;;;;4995437;28;20935;-45
2024/02/19 00:24:34;;;;;;;227.80;61.00;;;;;;;;;;4996712;28;20439;-45
2024/02/19 00:27:00;;;;;;;222.90;56.70;;;;;;;;;;4993907;28;20362;-45
2024/02/19 00:29:26;;;;;;;223.50;57.83;;;;;;;;;;4996101;28;20447;-45
2024/02/19 00:31:52;;;;;;;225.23;57.37;;;;;;;;;;4996378;28;20463;-45
2024/02/19 00:34:18;;;;;;;224.50;58.53;;;;;;;;;;4993530;28;20446;-45
2024/02/19 00:36:44;;;;;;;223.85;58.42;;;;;;;;;;4997188;28;20489;-45
2024/02/19 00:39:10;;;;;;;226.67;59.63;;;;;;;;;;4995087;28;20193;-45
2024/02/19 00:41:36;;;;;;;224.73;58.30;;;;;;;;;;4997659;28;20771;-45
2024/02/19 00:44:02;;;;;;;222.73;56.47;;;;;;;;;;4998865;28;20435;-45
2024/02/19 00:46:28;;;;;;;224.80;57.25;;;;;;;;;;4999471;28;20259;-45
2024/02/19 00:48:54;;;;;;;224.73;57.10;;;;;;;;;;4998048;28;20270;-45
2024/02/19 00:51:20;;;;;;;223.97;56.90;;;;;;;;;;4998728;28;20456;-45
2024/02/19 00:53:46;;;;;;;225.37;57.50;;;;;;;;;;5000483;28;20415;-45
2024/02/19 00:56:12;;;;;;;223.73;56.87;;;;;;;;;;4996596;28;20396;-45
2024/02/19 00:58:38;;;;;;;224.37;56.50;;;;;;;;;;5000401;28;20760;-45
2024/02/19 01:01:04;;;;;;;225.97;58.17;;;;;;;;;;4998887;28;20814;-45
2024/02/19 01:03:30;;;;;;;224.18;57.08;;;;;;;;;;4998063;28;20447;-45
2024/02/19 01:05:56;;;;;;;223.77;57.37;;;;;;;;;;4998952;28;20191;-45
2024/02/19 01:08:22;;;;;;;225.33;58.57;;;;;;;;;;4998461;28;20475;-45
2024/02/19 01:10:49;;;;;;;223.97;57.60;;;;;;;;;;4999916;28;20466;-45
2024/02/19 01:13:16;;;;;;;224.80;57.53;;;;;;;;;;4998303;28;20435;-45
2024/02/19 01:15:42;;;;;;;227.32;59.83;;;;;;;;;;4998690;28;20202;-45
2024/02/19 01:18:08;;;;;;;224.20;58.07;;;;;;;;;;4998443;28;20693;-45
2024/02/19 01:20:36;;;;;;;225.50;59.00;;;;;;;;;;5000163;28;20926;-45
2024/02/19 01:23:02;;;;;;;225.57;58.33;;;;;;;;;;4995285;28;20543;-45
2024/02/19 01:25:28;;;;;;;225.65;57.92;;;;;;;;;;4998680;28;20260;-45
2024/02/19 01:27:54;;;;;;;225.77;59.70;;;;;;;;;;4999010;28;20265;-45
2024/02/19 01:30:20;;;;;;;225.03;57.60;;;;;;;;;;4996671;28;20420;-45
2024/02/19 01:32:46;;;;;;;224.77;58.03;;;;;;;;;;4999989;28;20429;-45
2024/02/19 01:35:12;;;;;;;231.38;62.47;;;;;;;;;;4997632;28;20415;-45
2024/02/19 01:37:37;;;;;;;226.87;58.50;;;;;;;;;;4999714;28;20177;-45
2024/02/19 01:40:09;;;;;;;225.47;57.97;;;;;;;;;;4997848;28;20428;-45
2024/02/19 01:42:35;;;;;;;225.07;57.90;;;;;;;;;;5000085;28;20773;-45
2024/02/19 01:45:01;;;;;;;226.50;58.25;;;;;;;;;;4996131;28;20271;-45
2024/02/19 01:47:27;;;;;;;227.80;59.95;;;;;;;;;;4998417;28;20183;-45
2024/02/19 01:49:53;;;;;;;227.75;60.20;;;;;;;;;;4998686;28;20178;-45
2024/02/19 01:52:19;;;;;;;227.87;61.20;;;;;;;;;;4997380;28;20624;-45
2024/02/19 01:54:45;;;;;;;226.25;59.95;;;;;;;;;;4998666;28;20509;-45
2024/02/19 01:57:11;;;;;;;224.90;58.45;;;;;;;;;;4997355;28;20175;-45
2024/02/19 01:59:38;;;;;;;228.30;60.63;;;;;;;;;;4998106;28;20199;-45
2024/02/19 02:02:04;;;;;;;227.95;61.05;;;;;;;;;;4996961;28;20665;-45
2024/02/19 02:04:30;;;;;;;227.98;60.83;;;;;;;;;;4996888;28;20219;-45
2024/02/19 02:06:56;;;;;;;228.85;61.97;;;;;;;;;;4997454;28;20773;-46
2024/02/19 02:09:23;;;;;;;228.10;61.00;;;;;;;;;;4997237;28;20586;-45
2024/02/19 02:11:49;;;;;;;227.85;60.95;;;;;;;;;;4997398;28;20222;-45
2024/02/19 02:14:15;;;;;;;227.23;60.50;;;;;;;;;;4997175;28;20188;-45
2024/02/19 02:16:41;;;;;;;226.60;60.50;;;;;;;;;;4999317;28;20271;-45
2024/02/19 02:19:07;;;;;;;226.40;60.20;;;;;;;;;;4997135;28;20438;-45
2024/02/19 02:21:33;;;;;;;225.93;59.80;;;;;;;;;;4998452;28;20419;-45
2024/02/19 02:23:59;;;;;;;227.73;60.47;;;;;;;;;;4997477;28;20431;-45
2024/02/19 02:26:25;;;;;;;224.90;59.50;;;;;;;;;;4996120;28;20195;-45
2024/02/19 02:28:51;;;;;;;226.68;60.45;;;;;;;;;;4998178;28;20953;-45
2024/02/19 02:31:18;;;;;;;225.07;60.50;;;;;;;;;;4995598;28;20311;-45
2024/02/19 02:33:44;;;;;;;228.50;61.40;;;;;;;;;;4998838;28;20431;-45
2024/02/19 02:36:12;;;;;;;228.87;62.60;;;;;;;;;;4996416;28;20775;-45
2024/02/19 02:38:38;;;;;;;227.40;61.15;;;;;;;;;;4998611;28;20494;-45
2024/02/19 02:41:05;;;;;;;226.90;60.22;;;;;;;;;;4995775;28;20181;-45
2024/02/19 02:43:31;;;;;;;226.90;59.55;;;;;;;;;;4998109;28;20626;-45
2024/02/19 02:45:56;;;;;;;230.77;64.82;;;;;;;;;;4996552;28;20210;-45
2024/02/19 02:48:23;;;;;;;224.33;60.30;;;;;;;;;;4992645;28;20648;-45
2024/02/19 02:50:49;;;;;;;226.68;60.10;;;;;;;;;;5005125;28;20462;-46
2024/02/19 02:53:15;;;;;;;224.20;57.92;;;;;;;;;;5006253;28;20215;-45
2024/02/19 02:55:42;;;;;;;226.80;60.40;;;;;;;;;;5011159;28;20217;-45
2024/02/19 02:58:08;;;;;;;227.02;60.22;;;;;;;;;;5011948;28;20774;-45
2024/02/19 03:00:34;;;;;;;226.63;59.22;;;;;;;;;;5012270;28;20189;-45
2024/02/19 03:03:00;;;;;;;224.03;58.00;;;;;;;;;;5011945;28;20215;-45
2024/02/19 03:05:26;;;;;;;226.07;60.33;;;;;;;;;;5007212;28;20430;-46
2024/02/19 03:07:52;;;;;;;225.93;59.87;;;;;;;;;;5012000;28;20472;-45
2024/02/19 03:10:18;;;;;;;224.27;58.35;;;;;;;;;;5012119;28;20463;-45
2024/02/19 03:12:44;;;;;;;226.05;60.63;;;;;;;;;;5012206;28;20210;-46
2024/02/19 03:15:10;;;;;;;233.37;66.50;;;;;;;;;;5011568;28;20719;-47
2024/02/19 03:17:36;;;;;;;230.47;63.60;;;;;;;;;;4992124;28;20451;-46
2024/02/19 03:20:04;;;;;;;225.77;59.90;;;;;;;;;;4996225;28;20473;-46
2024/02/19 03:22:30;;;;;;;228.63;61.35;;;;;;;;;;4995630;28;20416;-46
2024/02/19 03:24:57;;;;;;;228.47;62.93;;;;;;;;;;4996482;28;20222;-45
2024/02/19 03:27:23;;;;;;;227.73;61.30;;;;;;;;;;4995686;28;20415;-46
2024/02/19 03:29:49;;;;;;;228.70;61.87;;;;;;;;;;4996308;28;20191;-46
2024/02/19 03:32:16;;;;;;;227.10;61.90;;;;;;;;;;4996477;28;20560;-46
2024/02/19 03:34:42;;;;;;;228.82;62.15;;;;;;;;;;4997604;28;20630;-46
2024/02/19 03:37:08;;;;;;;226.27;61.50;;;;;;;;;;4995661;28;20172;-46
2024/02/19 03:39:34;;;;;;;226.30;61.42;;;;;;;;;;4997560;28;20460;-46
2024/02/19 03:42:00;;;;;;;226.30;62.07;;;;;;;;;;4995808;28;20189;-46
2024/02/19 03:44:26;;;;;;;227.93;62.35;;;;;;;;;;4994635;28;20950;-46
2024/02/19 03:46:52;;;;;;;227.17;61.80;;;;;;;;;;4996924;28;20183;-46
2024/02/19 03:49:18;;;;;;;228.83;63.33;;;;;;;;;;4995982;28;20458;-46
2024/02/19 03:51:44;;;;;;;226.33;61.77;;;;;;;;;;4998033;28;21062;-46
2024/02/19 03:54:10;;;;;;;227.50;61.50;;;;;;;;;;4995795;28;20430;-47
2024/02/19 03:56:36;;;;;;;230.98;65.20;;;;;;;;;;4997657;28;20172;-46
2024/02/19 03:59:02;;;;;;;230.63;64.47;;;;;;;;;;4994311;28;20431;-46
2024/02/19 04:01:28;;;;;;;230.23;64.30;;;;;;;;;;4996616;28;20411;-47
2024/02/19 04:03:54;;;;;;;228.03;62.00;;;;;;;;;;4996692;28;20451;-47
2024/02/19 04:06:20;;;;;;;228.03;62.00;;;;;;;;;;4995810;28;20420;-46
2024/02/19 04:08:46;;;;;;;230.37;65.47;;;;;;;;;;4998320;28;20451;-45
2024/02/19 04:11:15;;;;;;;229.03;64.50;;;;;;;;;;4995862;28;20793;-46
2024/02/19 04:13:41;;;;;;;230.10;64.97;;;;;;;;;;4996511;28;20869;-45
2024/02/19 04:16:09;;;;;;;227.87;63.87;;;;;;;;;;4995709;28;20201;-46
2024/02/19 04:18:35;;;;;;;231.85;66.25;;;;;;;;;;5001366;28;20403;-46
2024/02/19 04:21:01;;;;;;;230.10;63.77;;;;;;;;;;4993763;28;20189;-46
2024/02/19 04:23:27;;;;;;;232.17;67.33;;;;;;;;;;5000955;28;20498;-45
2024/02/19 04:25:53;;;;;;;228.47;63.70;;;;;;;;;;4998836;28;20786;-46
2024/02/19 04:28:19;;;;;;;230.18;64.35;;;;;;;;;;4999415;28;20435;-47
2024/02/19 04:30:45;;;;;;;232.27;66.15;;;;;;;;;;5001656;28;20202;-46
2024/02/19 04:33:11;;;;;;;230.17;65.13;;;;;;;;;;4999659;28;20193;-47
2024/02/19 04:35:37;;;;;;;231.13;65.07;;;;;;;;;;5001111;28;20404;-46
2024/02/19 04:38:03;;;;;;;227.97;62.70;;;;;;;;;;5002126;28;20740;-46
2024/02/19 04:40:29;;;;;;;231.55;65.88;;;;;;;;;;5014783;28;20786;-45
2024/02/19 04:42:55;;;;;;;232.17;66.77;;;;;;;;;;5014278;28;20355;-46
2024/02/19 04:45:21;;;;;;;227.73;63.27;;;;;;;;;;5014645;28;20895;-45
2024/02/19 04:47:47;;;;;;;228.93;64.77;;;;;;;;;;5014890;28;20957;-46
2024/02/19 04:50:13;;;;;;;229.27;62.40;;;;;;;;;;5015030;28;20921;-46
2024/02/19 04:52:39;;;;;;;229.80;63.97;;;;;;;;;;5014539;28;20551;-46
2024/02/19 04:55:05;;;;;;;228.87;65.17;;;;;;;;;;5014944;28;20407;-46
2024/02/19 04:57:31;;;;;;;229.77;64.13;;;;;;;;;;5014665;28;20411;-46
2024/02/19 04:59:57;;;;;;;231.77;66.27;;;;;;;;;;5015060;28;20186;-48
2024/02/19 05:02:23;;;;;;;230.47;64.67;;;;;;;;;;5015327;28;20418;-46
2024/02/19 05:04:49;;;;;;;231.33;65.20;;;;;;;;;;5015034;28;20454;-46
2024/02/19 05:07:15;;;;;;;231.47;66.37;;;;;;;;;;5015047;28;20442;-46
2024/02/19 05:09:41;;;;;;;230.88;65.78;;;;;;;;;;5014730;28;20437;-46
2024/02/19 05:12:07;;;;;;;230.50;64.50;;;;;;;;;;5015010;28;20561;-46
2024/02/19 05:14:33;;;;;;;231.67;66.20;;;;;;;;;;5014454;28;20803;-45
2024/02/19 05:17:00;;;;;;;231.20;66.37;;;;;;;;;;5014813;28;20403;-47
2024/02/19 05:19:26;;;;;;;230.40;64.45;;;;;;;;;;5014618;28;20414;-46
2024/02/19 05:21:52;;;;;;;229.77;62.70;;;;;;;;;;5014648;28;20195;-46
2024/02/19 05:24:19;;;;;;;231.60;65.72;;;;;;;;;;5014826;28;20230;-46
2024/02/19 05:26:45;;;;;;;233.50;65.18;;;;;;;;;;5014379;28;20183;-46
2024/02/19 05:29:11;;;;;;;231.23;65.47;;;;;;;;;;5014389;28;20547;-46
2024/02/19 05:31:40;;;;;;;230.52;64.05;;;;;;;;;;5014446;28;20484;-46
2024/02/19 05:34:06;;;;;;;229.88;64.50;;;;;;;;;;5008325;28;20276;-47
2024/02/19 05:36:32;;;;;;;231.98;65.45;;;;;;;;;;5012440;28;20172;-46
2024/02/19 05:38:59;;;;;;;230.05;62.70;;;;;;;;;;5014988;28;20179;-46
2024/02/19 05:41:25;;;;;;;233.60;65.05;;;;;;;;;;5012572;28;20184;-46
2024/02/19 05:43:51;;;;;;;229.25;63.30;;;;;;;;;;5006008;28;20687;-46
2024/02/19 05:46:17;;;;;;;232.37;65.73;;;;;;;;;;5014135;28;20180;-46
2024/02/19 05:48:43;;;;;;;229.35;61.97;;;;;;;;;;5014380;28;20514;-46
2024/02/19 05:51:11;;;;;;;229.37;62.07;;;;;;;;;;5014877;28;20267;-46
2024/02/19 05:53:37;;;;;;;228.70;61.90;;;;;;;;;;5014771;28;20804;-46
2024/02/19 05:56:04;;;;;;;230.45;63.63;;;;;;;;;;5014255;28;20168;-47
2024/02/19 05:58:30;;;;;;;230.77;63.28;;;;;;;;;;5014734;28;20315;-46
2024/02/19 06:00:56;;;;;;;231.32;64.07;;;;;;;;;;5014534;28;20209;-46
2024/02/19 06:03:24;;;;;;;231.83;64.50;;;;;;;;;;5014465;28;20290;-46
2024/02/19 06:05:50;;;;;;;232.65;65.22;;;;;;;;;;5014651;28;20421;-47
2024/02/19 06:08:16;;;;;;;231.47;65.17;;;;;;;;;;5014801;28;20180;-48
2024/02/19 06:10:45;;;;;;;231.32;64.00;;;;;;;;;;5014567;28;20450;-48
2024/02/19 06:13:11;;;;;;;230.90;63.75;;;;;;;;;;5014987;28;20756;-47
2024/02/19 06:15:37;;;;;;;232.63;65.60;;;;;;;;;;5015420;28;20200;-47
2024/02/19 06:18:03;;;;;;;233.40;65.77;;;;;;;;;;5015647;28;20417;-46
2024/02/19 06:20:29;;;;;;;233.88;66.15;;;;;;;;;;5014447;28;20418;-46
2024/02/19 06:22:55;;;;;;;230.90;64.50;;;;;;;;;;5014475;28;20570;-45
2024/02/19 06:25:21;;;;;;;233.55;64.65;;;;;;;;;;5014263;28;20751;-46
2024/02/19 06:27:47;;;;;;;230.50;64.03;;;;;;;;;;5014258;28;20188;-46
2024/02/19 06:30:13;;;;;;;233.67;65.77;;;;;;;;;;5006086;28;20424;-46
2024/02/19 06:32:40;;;;;;;232.45;65.22;;;;;;;;;;4999602;28;20797;-46
2024/02/19 06:35:07;;;;;;;232.77;65.60;;;;;;;;;;4997757;28;20176;-45
2024/02/19 06:37:33;;;;;;;233.48;65.13;;;;;;;;;;4997627;28;20192;-46
2024/02/19 06:39:59;;;;;;;231.00;62.90;;;;;;;;;;4998357;28;20184;-46
2024/02/19 06:42:25;;;;;;;230.23;63.63;;;;;;;;;;4998602;28;20415;-46
2024/02/19 06:44:51;;;;;;;229.30;62.30;;;;;;;;;;4998814;28;20439;-46
2024/02/19 06:47:17;;;;;;;227.53;60.73;;;;;;;;;;4997819;28;20953;-46
2024/02/19 06:49:43;;;;;;;232.40;64.65;;;;;;;;;;4999749;28;20505;-46
2024/02/19 06:52:09;;;;;;;230.30;63.38;;;;;;;;;;4998411;28;20391;-46
2024/02/19 06:54:35;;;;;;;228.37;61.90;;;;;;;;;;4999860;28;20197;-46
2024/02/19 06:57:02;;;;;;;229.43;61.83;;;;;;;;;;4997925;28;20496;-46
2024/02/19 06:59:30;;;;;;;228.25;61.60;;;;;;;;;;4997075;28;20416;-45
2024/02/19 07:01:56;;;;;;;231.50;63.35;;;;;;;;;;4998135;28;21151;-47
2024/02/19 07:04:22;;;;;;;230.37;62.70;;;;;;;;;;4998231;28;20216;-47
2024/02/19 07:06:48;;;;;;;229.43;62.40;;;;;;;;;;5000155;28;20454;-47
2024/02/19 07:09:14;;;;;;;229.68;61.90;;;;;;;;;;4998362;28;20185;-46
2024/02/19 07:11:40;;;;;;;227.63;60.67;;;;;;;;;;4999385;28;20204;-46
2024/02/19 07:14:06;;;;;;;229.50;61.40;;;;;;;;;;4998522;28;20197;-46
2024/02/19 07:16:32;;;;;;;229.35;61.30;;;;;;;;;;4999673;28;20404;-46
2024/02/19 07:18:59;;;;;;;229.90;61.87;;;;;;;;;;4998386;28;20601;-47
2024/02/19 07:21:24;;;;;;;228.85;61.10;;;;;;;;;;4996826;28;20416;-46
2024/02/19 07:23:50;;;;;;;228.23;59.37;;;;;;;;;;4997781;28;20334;-48
2024/02/19 07:26:16;;;;;;;229.73;62.37;;;;;;;;;;4997344;28;20412;-48
2024/02/19 07:28:42;;;;;;;231.47;62.57;;;;;;;;;;4999969;28;20447;-46
2024/02/19 07:31:08;;;;;;;228.27;59.70;;;;;;;;;;4998100;28;20533;-46
2024/02/19 07:33:34;;;;;;;229.03;61.47;;;;;;;;;;4999905;28;20455;-47
2024/02/19 07:36:00;;;;;;;229.27;60.83;;;;;;;;;;4998419;28;20908;-46
2024/02/19 07:38:26;;;;;;;231.17;62.07;;;;;;;;;;4998298;28;20988;-47
2024/02/19 07:40:52;;;;;;;228.97;60.17;;;;;;;;;;4998505;28;20419;-46
2024/02/19 07:43:18;;;;;;;230.03;61.90;;;;;;;;;;4997633;28;20463;-46
2024/02/19 07:45:44;;;;;;;228.05;61.25;;;;;;;;;;4999033;28;20467;-46
2024/02/19 07:48:11;;;;;;;228.47;61.77;;;;;;;;;;4995443;28;21022;-46
2024/02/19 07:50:37;;;;;;;232.82;67.95;;;;;;;;;;4998110;28;20487;-46
2024/02/19 07:53:03;;;;;;;233.95;66.78;;;;;;;;;;4995173;28;20316;-46
2024/02/19 07:55:32;;;;;;;230.95;61.45;;;;;;;;;;4996637;28;20173;-46
2024/02/19 07:57:58;;;;;;;232.13;65.25;;;;;;;;;;4997891;28;20602;-48
2024/02/19 08:00:24;;;;;;;232.73;64.97;;;;;;;;;;4996112;28;20232;-47
2024/02/19 08:02:50;;;;;;;233.77;67.07;;;;;;;;;;4999403;28;20452;-46
2024/02/19 08:05:16;;;;;;;234.33;67.40;;;;;;;;;;4997490;28;20263;-46
2024/02/19 08:07:42;;;;;;;230.15;62.55;;;;;;;;;;4998869;28;20422;-46
2024/02/19 08:10:08;;;;;;;229.07;60.60;;;;;;;;;;4997504;28;20172;-46
2024/02/19 08:12:34;;;;;;;229.70;60.55;;;;;;;;;;4999118;28;20494;-47
2024/02/19 08:15:00;;;;;;;231.70;64.00;;;;;;;;;;4995038;28;20189;-46
2024/02/19 08:17:26;;;;;;;233.07;65.60;;;;;;;;;;4997975;28;20541;-46
2024/02/19 08:19:52;;;;;;;230.53;60.57;;;;;;;;;;4998857;28;20717;-46
2024/02/19 08:22:18;;;;;;;230.17;60.30;;;;;;;;;;4995811;28;20753;-46
2024/02/19 08:24:44;;;;;;;229.07;60.50;;;;;;;;;;4993373;28;20444;-46
2024/02/19 08:27:10;;;;;;;229.07;61.00;;;;;;;;;;4995507;28;20486;-48
2024/02/19 08:29:36;;;;;;;229.05;61.83;;;;;;;;;;4998752;28;20408;-46
2024/02/19 08:32:02;;;;;;;231.53;62.07;;;;;;;;;;4996951;28;20212;-46
2024/02/19 08:34:29;;;;;;;231.15;63.40;;;;;;;;;;4997879;28;20624;-47
2024/02/19 08:36:55;;;;;;;230.80;63.50;;;;;;;;;;4997157;28;20187;-47
2024/02/19 08:39:21;;;;;;;231.07;63.15;;;;;;;;;;4995027;28;20772;-46
2024/02/19 08:41:47;;;;;;;231.45;62.15;;;;;;;;;;4998860;28;20255;-47
2024/02/19 08:44:13;;;;;;;232.27;63.63;;;;;;;;;;4996804;28;20197;-47
2024/02/19 08:46:39;;;;;;;234.05;66.38;;;;;;;;;;4999049;28;20447;-46
2024/02/19 08:49:08;;;;;;;230.30;62.07;;;;;;;;;;4996927;28;20177;-46
2024/02/19 08:51:34;;;;;;;233.73;63.92;;;;;;;;;;4998068;28;20463;-46
2024/02/19 08:54:00;;;;;;;235.77;65.93;;;;;;;;;;4995041;28;20200;-48
2024/02/19 08:56:26;;;;;;;232.27;63.70;;;;;;;;;;4997706;28;20408;-46
2024/02/19 08:58:52;;;;;;;237.20;67.88;;;;;;;;;;4998025;28;20446;-47
2024/02/19 09:01:18;;;;;;;234.80;65.03;;;;;;;;;;4996864;28;20173;-46
2024/02/19 09:03:44;;;;;;;233.00;64.00;;;;;;;;;;5014438;28;20218;-46
2024/02/19 09:06:11;;;;;;;234.40;64.17;;;;;;;;;;5016001;28;20191;-46
2024/02/19 09:08:37;;;;;;;235.18;66.10;;;;;;;;;;5016429;28;20407;-47
2024/02/19 09:11:03;;;;;;;234.07;64.00;;;;;;;;;;5015860;28;20207;-45
2024/02/19 09:13:29;;;;;;;235.93;65.72;;;;;;;;;;5015768;28;20557;-46
2024/02/19 09:15:55;;;;;;;236.05;65.72;;;;;;;;;;5015775;28;20175;-46
2024/02/19 09:18:21;;;;;;;234.23;64.70;;;;;;;;;;5015711;28;20168;-46
2024/02/19 09:20:47;;;;;;;236.87;67.97;;;;;;;;;;5015789;28;20506;-46
2024/02/19 09:23:14;;;;;;;237.03;68.50;;;;;;;;;;5015300;28;20440;-46
2024/02/19 09:25:40;;;;;;;237.30;68.93;;;;;;;;;;5015930;28;21097;-45
2024/02/19 09:28:08;;;;;;;235.03;67.67;;;;;;;;;;5015475;28;20184;-47
2024/02/19 09:30:34;;;;;;;237.63;68.28;;;;;;;;;;5014930;28;20408;-46
2024/02/19 09:33:00;;;;;;;237.87;70.00;;;;;;;;;;5014779;28;20202;-46
2024/02/19 09:35:25;;;;;;;240.83;72.10;;;;;;;;;;5010399;28;20423;-46
2024/02/19 09:37:51;;;;;;;236.23;68.50;;;;;;;;;;5014571;28;20545;-46
2024/02/19 09:40:21;;;;;;;238.23;69.35;;;;;;;;;;5015181;28;20908;-46
2024/02/19 09:42:48;;;;;;;241.52;72.28;;;;;;;;;;5014787;28;20543;-46
2024/02/19 09:45:14;;;;;;;242.82;74.50;;;;;;;;;;5015270;28;20183;-47
2024/02/19 09:47:44;;;;;;;242.05;75.07;;;;;;;;;;5013866;28;20254;-46
2024/02/19 09:50:12;;;;;;;240.13;73.30;;;;;;;;;;4993124;28;20445;-47
2024/02/19 09:52:39;;;;;;;240.20;72.82;;;;;;;;;;5008438;28;20292;-46
2024/02/19 09:55:07;;;;;;;250.73;82.75;;;;;;;;;;5010030;28;20208;-46
2024/02/19 09:57:33;;;;;;;245.95;77.55;;;;;;;;;;5001474;28;20649;-46
2024/02/19 10:00:04;;;;;;;241.87;74.67;;;;;;;;;;5001780;28;20233;-45
2024/02/19 10:02:30;;;;;;;240.60;72.32;;;;;;;;;;5005610;28;20414;-46
2024/02/19 10:04:56;;;;;;;244.50;78.65;;;;;;;;;;5011866;28;20249;-48
2024/02/19 10:07:22;;;;;;;240.77;73.37;;;;;;;;;;4996241;28;20211;-46
2024/02/19 10:09:48;;;;;;;243.43;74.90;;;;;;;;;;4999772;28;20445;-47
2024/02/19 10:12:14;;;;;;;237.67;68.27;;;;;;;;;;5005698;28;20470;-47
2024/02/19 10:14:40;;;;;;;240.23;73.05;;;;;;;;;;5010972;28;20436;-46
2024/02/19 10:17:06;;;;;;;240.07;72.30;;;;;;;;;;5015262;28;20246;-46
2024/02/19 10:19:32;;;;;;;240.77;75.17;;;;;;;;;;5014501;28;20412;-47
2024/02/19 10:21:58;;;;;;;238.43;69.47;;;;;;;;;;5004009;28;20427;-46
2024/02/19 10:24:26;;;;;;;241.80;73.00;;;;;;;;;;5013535;28;20611;-47
2024/02/19 10:26:52;;;;;;;239.70;71.60;;;;;;;;;;5001236;28;20182;-48
2024/02/19 10:29:18;;;;;;;241.98;73.75;;;;;;;;;;5004505;28;20665;-48
2024/02/19 10:31:44;;;;;;;244.07;73.57;;;;;;;;;;4997752;28;20207;-47
2024/02/19 10:34:11;;;;;;;241.45;74.25;;;;;;;;;;5008253;28;20210;-47
2024/02/19 10:36:37;;;;;;;246.73;79.60;;;;;;;;;;5012742;28;20160;-48
2024/02/19 10:39:04;;;;;;;242.93;75.57;;;;;;;;;;4998874;28;20500;-47
2024/02/19 10:41:30;;;;;;;242.70;76.28;;;;;;;;;;5028069;28;20668;-46
2024/02/19 10:43:56;;;;;;;242.27;75.53;;;;;;;;;;5004518;28;20239;-47
2024/02/19 10:46:23;;;;;;;243.38;75.90;;;;;;;;;;5014254;28;20421;-48
2024/02/19 10:48:51;;;;;;;243.05;75.28;;;;;;;;;;5014522;28;20203;-47
2024/02/19 10:51:19;;;;;;;242.93;75.45;;;;;;;;;;5013061;28;20254;-46
2024/02/19 10:53:45;;;;;;;242.85;76.32;;;;;;;;;;5014558;28;20207;-47
2024/02/19 10:56:18;;;;;;;243.38;77.22;;;;;;;;;;5012685;28;20199;-47
2024/02/19 10:58:54;;;;;;;243.15;77.40;;;;;;;;;;5014385;28;20176;-47
2024/02/19 11:01:22;;;;;;;243.68;76.93;;;;;;;;;;5012295;28;20181;-47
2024/02/19 11:03:48;;;;;;;245.00;76.85;;;;;;;;;;5010380;28;20583;-47
2024/02/19 11:06:14;;;;;;;239.98;72.75;;;;;;;;;;5005844;28;20186;-47
2024/02/19 11:08:50;;;;;;;244.48;76.70;;;;;;;;;;5013294;28;20536;-48
2024/02/19 11:11:18;;;;;;;240.43;72.70;;;;;;;;;;5010400;28;20197;-47
2024/02/19 11:13:46;;;;;;;240.60;71.55;;;;;;;;;;5014375;28;20188;-47
2024/02/19 11:16:16;;;;;;;241.20;72.30;;;;;;;;;;5014047;28;20181;-46
2024/02/19 11:18:42;;;;;;;237.60;70.05;;;;;;;;;;5012957;28;20196;-46
2024/02/19 11:21:10;;;;;;;239.80;72.10;;;;;;;;;;5013793;28;20177;-45
2024/02/19 11:23:36;;;;;;;241.23;73.70;;;;;;;;;;5013965;28;20441;-48
2024/02/19 11:26:02;;;;;;;240.85;75.20;;;;;;;;;;5013617;28;20242;-46
2024/02/19 11:28:32;;;;;;;241.45;73.68;;;;;;;;;;5012988;28;20184;-46
2024/02/19 11:31:01;;;;;;;241.40;74.03;;;;;;;;;;5002935;28;20196;-46
2024/02/19 11:33:27;;;;;;;238.45;70.97;;;;;;;;;;4996180;28;20192;-47
2024/02/19 11:35:57;;;;;;;241.60;74.00;;;;;;;;;;5008203;28;20187;-46
2024/02/19 11:38:29;;;;;;;241.98;75.68;;;;;;;;;;5009882;28;20404;-48
2024/02/19 11:40:57;;;;;;;242.93;74.95;;;;;;;;;;5013851;28;20230;-47
2024/02/19 11:43:24;;;;;;;242.20;74.85;;;;;;;;;;5012378;28;20616;-47
2024/02/19 11:45:52;;;;;;;242.88;75.05;;;;;;;;;;5009115;28;20188;-47
2024/02/19 11:48:18;;;;;;;241.68;74.13;;;;;;;;;;4992626;28;20418;-47
2024/02/19 11:50:44;;;;;;;242.43;76.13;;;;;;;;;;4998303;28;20179;-46
2024/02/19 11:53:10;;;;;;;241.43;74.03;;;;;;;;;;5012697;28;20468;-47
2024/02/19 11:55:38;;;;;;;242.98;73.25;;;;;;;;;;5012386;28;20401;-46
2024/02/19 11:58:06;;;;;;;242.02;74.18;;;;;;;;;;5014294;28;20171;-46
2024/02/19 12:00:32;;;;;;;244.13;77.85;;;;;;;;;;5014250;28;20190;-47
2024/02/19 12:02:58;;;;;;;241.63;72.53;;;;;;;;;;5007647;28;20184;-48
2024/02/19 12:05:24;;;;;;;240.98;74.15;;;;;;;;;;5010396;28;20212;-48
2024/02/19 12:07:50;;;;;;;241.33;73.47;;;;;;;;;;5013270;28;20411;-46
2024/02/19 12:10:17;;;;;;;241.10;74.07;;;;;;;;;;5013443;28;20818;-47
2024/02/19 12:12:43;;;;;;;243.23;76.20;;;;;;;;;;5012499;28;20205;-47
2024/02/19 12:15:11;;;;;;;244.05;76.28;;;;;;;;;;5013255;28;20188;-46
2024/02/19 12:17:38;;;;;;;240.02;71.10;;;;;;;;;;5012675;28;20655;-46
2024/02/19 12:20:05;;;;;;;241.98;71.97;;;;;;;;;;4993656;28;20188;-46
2024/02/19 12:22:31;;;;;;;241.77;74.82;;;;;;;;;;4988401;28;20209;-46
2024/02/19 12:24:57;;;;;;;241.40;72.60;;;;;;;;;;5002557;28;20218;-46
2024/02/19 12:27:23;;;;;;;241.82;74.57;;;;;;;;;;5007349;28;20420;-46
2024/02/19 12:29:52;;;;;;;242.63;74.47;;;;;;;;;;5005113;28;20502;-48
2024/02/19 12:32:18;;;;;;;243.75;75.90;;;;;;;;;;5003167;28;20458;-46
2024/02/19 12:34:44;;;;;;;242.93;76.63;;;;;;;;;;5006682;28;20199;-46
2024/02/19 12:37:10;;;;;;;244.43;76.83;;;;;;;;;;5004473;28;20201;-48
2024/02/19 12:39:36;;;;;;;245.90;79.60;;;;;;;;;;5012364;28;20416;-47
2024/02/19 12:42:02;;;;;;;242.93;76.63;;;;;;;;;;5013843;28;20454;-47
2024/02/19 12:44:28;;;;;;;245.40;79.93;;;;;;;;;;5013742;28;20446;-47
2024/02/19 12:46:54;;;;;;;247.02;78.07;;;;;;;;;;4993256;28;20444;-46
2024/02/19 12:49:20;;;;;;;252.15;83.57;;;;;;;;;;4996910;28;20654;-46
2024/02/19 12:51:48;;;;;;;245.03;79.37;;;;;;;;;;4999866;28;20207;-46
2024/02/19 12:54:14;;;;;;;247.10;79.07;;;;;;;;;;5013876;28;20938;-45
2024/02/19 12:56:40;;;;;;;246.63;78.72;;;;;;;;;;5013752;28;20180;-45
2024/02/19 12:59:06;;;;;;;245.23;78.28;;;;;;;;;;5014137;28;20658;-45
2024/02/19 13:01:33;;;;;;;244.77;78.67;;;;;;;;;;5014127;28;20176;-45
2024/02/19 13:03:59;;;;;;;250.40;86.50;;;;;;;;;;5013959;28;20964;-45
2024/02/19 13:06:25;;;;;;;247.90;80.95;;;;;;;;;;5013879;28;20180;-45
2024/02/19 13:08:51;;;;;;;248.48;82.30;;;;;;;;;;5013850;28;20551;-46
2024/02/19 13:11:19;;;;;;;245.45;80.40;;;;;;;;;;5013989;28;20203;-46
2024/02/19 13:13:45;;;;;;;245.40;76.68;;;;;;;;;;5014027;28;20247;-46
2024/02/19 13:16:14;;;;;;;243.88;76.65;;;;;;;;;;5013899;28;20207;-45
2024/02/19 13:18:40;;;;;;;243.90;77.20;;;;;;;;;;5013731;28;20191;-46
2024/02/19 13:21:07;;;;;;;244.88;78.47;;;;;;;;;;5013755;28;20191;-46
2024/02/19 13:23:33;;;;;;;245.40;78.85;;;;;;;;;;5013329;28;20198;-45
2024/02/19 13:26:01;;;;;;;241.80;75.13;;;;;;;;;;5013566;28;20551;-46
2024/02/19 13:28:28;;;;;;;241.23;75.03;;;;;;;;;;5013773;28;20181;-45
2024/02/19 13:30:55;;;;;;;240.33;71.73;;;;;;;;;;5013620;28;20189;-45
2024/02/19 13:33:21;;;;;;;241.77;73.28;;;;;;;;;;5007801;28;20431;-45
2024/02/19 13:35:47;;;;;;;243.48;75.28;;;;;;;;;;5013640;28;20216;-45
2024/02/19 13:38:16;;;;;;;240.87;76.47;;;;;;;;;;5013306;28;20202;-46
2024/02/19 13:40:42;;;;;;;240.20;73.40;;;;;;;;;;5013372;28;20464;-46
2024/02/19 13:43:09;;;;;;;241.37;75.47;;;;;;;;;;5012416;28;20224;-45
2024/02/19 13:45:58;;;;;;;241.80;74.90;;;;;;;;;;5013311;28;20409;-46
2024/02/19 13:48:24;;;;;;;245.98;81.10;;;;;;;;;;5013099;28;20173;-46
2024/02/19 13:50:57;;;;;;;238.60;71.97;;;;;;;;;;5012208;28;20595;-45
2024/02/19 13:53:25;;;;;;;241.60;75.63;;;;;;;;;;5013032;28;20513;-46
2024/02/19 13:55:51;;;;;;;240.50;75.85;;;;;;;;;;5012933;28;20259;-45
2024/02/19 13:58:17;;;;;;;242.70;75.10;;;;;;;;;;5013128;28;20173;-45